createdAt,value
2023-09-13T00:02:30.812Z,80.78
2023-09-13T00:05:03.895Z,80.80
2023-09-13T00:07:35.587Z,80.69
2023-09-13T00:10:09.098Z,80.80
2023-09-13T00:12:41.106Z,80.96
2023-09-13T00:15:13.384Z,80.79
2023-09-13T00:17:44.948Z,80.89
2023-09-13T00:20:16.873Z,81.11
2023-09-13T00:22:48.423Z,81.20
2023-09-13T00:25:20.175Z,81.33
2023-09-13T00:27:51.669Z,81.45
2023-09-13T00:30:23.009Z,81.58
2023-09-13T00:32:54.386Z,81.79
2023-09-13T00:35:25.892Z,81.73
2023-09-13T00:37:57.555Z,81.52
2023-09-13T00:40:28.930Z,81.85
2023-09-13T00:43:01.376Z,81.71
2023-09-13T00:45:34.805Z,81.60
2023-09-13T00:48:07.594Z,81.54
2023-09-13T00:50:51.280Z,81.56
2023-09-13T00:53:26.164Z,81.57
2023-09-13T00:55:58.019Z,81.44
2023-09-13T00:58:30.840Z,81.55
2023-09-13T01:01:02.294Z,81.81
2023-09-13T01:03:34.797Z,81.73
2023-09-13T01:06:07.255Z,81.49
2023-09-13T01:08:40.999Z,81.80
2023-09-13T01:11:13.081Z,81.61
2023-09-13T01:13:44.844Z,81.72
2023-09-13T01:16:24.021Z,81.70
2023-09-13T01:19:01.733Z,81.70
2023-09-13T01:21:59.837Z,81.42
2023-09-13T01:25:04.401Z,81.49
2023-09-13T01:27:49.662Z,81.38
2023-09-13T01:30:25.111Z,81.36
2023-09-13T01:32:57.406Z,81.29
2023-09-13T01:35:29.007Z,81.38
2023-09-13T01:38:00.627Z,81.29
2023-09-13T01:40:40.040Z,81.33
2023-09-13T01:43:12.349Z,81.32
2023-09-13T01:45:44.317Z,81.40
2023-09-13T01:48:18.895Z,81.50
2023-09-13T01:50:51.555Z,81.66
2023-09-13T01:53:23.161Z,81.38
2023-09-13T01:55:54.550Z,81.45
2023-09-13T01:58:25.866Z,81.43
2023-09-13T02:00:57.322Z,81.49
2023-09-13T02:03:28.730Z,81.47
2023-09-13T02:06:00.060Z,81.55
2023-09-13T02:08:31.571Z,81.51
2023-09-13T02:11:02.877Z,81.43
2023-09-13T02:13:34.279Z,81.55
2023-09-13T02:16:06.275Z,81.63
2023-09-13T02:18:37.839Z,81.85
2023-09-13T02:21:11.350Z,81.98
2023-09-13T02:23:43.894Z,81.98
2023-09-13T02:26:23.285Z,81.88
2023-09-13T02:28:55.386Z,82.01
2023-09-13T02:31:27.991Z,82.16
2023-09-13T02:33:59.385Z,82.39
2023-09-13T02:36:30.966Z,82.32
2023-09-13T02:39:03.012Z,82.33
2023-09-13T02:41:34.399Z,82.43
2023-09-13T02:44:06.412Z,82.57
2023-09-13T02:46:37.775Z,82.64
2023-09-13T02:49:09.361Z,82.56
2023-09-13T02:51:40.916Z,82.39
2023-09-13T02:54:12.307Z,82.40
2023-09-13T02:56:43.708Z,82.34
2023-09-13T02:59:15.146Z,82.19
2023-09-13T03:01:47.056Z,82.03
2023-09-13T03:04:18.954Z,81.97
2023-09-13T03:06:50.471Z,82.07
2023-09-13T03:09:21.995Z,82.09
2023-09-13T03:11:53.424Z,82.14
2023-09-13T03:14:24.866Z,82.14
2023-09-13T03:16:56.309Z,82.16
2023-09-13T03:19:27.822Z,82.23
2023-09-13T03:21:59.643Z,82.28
2023-09-13T03:24:31.467Z,82.11
2023-09-13T03:27:03.827Z,82.04
2023-09-13T03:29:37.577Z,82.11
2023-09-13T03:32:09.514Z,82.05
2023-09-13T03:34:41.123Z,82.15
2023-09-13T03:37:12.607Z,82.06
2023-09-13T03:39:44.039Z,82.15
2023-09-13T03:42:15.475Z,82.00
2023-09-13T03:44:46.998Z,82.03
2023-09-13T03:47:18.375Z,82.18
2023-09-13T03:49:49.768Z,82.00
2023-09-13T03:52:21.163Z,82.34
2023-09-13T03:54:52.610Z,82.17
2023-09-13T03:57:24.184Z,82.18
2023-09-13T03:59:55.492Z,82.26
2023-09-13T04:02:27.019Z,82.33
2023-09-13T04:04:58.475Z,82.44
2023-09-13T04:07:29.963Z,82.17
2023-09-13T04:10:01.454Z,82.11
2023-09-13T04:12:34.018Z,82.11
2023-09-13T04:15:10.310Z,82.11
2023-09-13T04:17:41.804Z,82.20
2023-09-13T04:20:14.208Z,82.00
2023-09-13T04:22:45.618Z,81.95
2023-09-13T04:25:17.226Z,82.17
2023-09-13T04:27:49.617Z,82.12
2023-09-13T04:30:21.278Z,81.93
2023-09-13T04:32:52.712Z,82.11
2023-09-13T04:35:24.233Z,81.90
2023-09-13T04:37:56.125Z,82.07
2023-09-13T04:40:27.584Z,81.95
2023-09-13T04:43:25.341Z,81.88
2023-09-13T04:45:56.824Z,82.19
2023-09-13T04:48:28.195Z,82.11
2023-09-13T04:50:59.533Z,82.29
2023-09-13T04:53:30.804Z,82.25
2023-09-13T04:56:02.973Z,82.47
2023-09-13T04:58:36.649Z,82.31
2023-09-13T05:01:09.934Z,82.53
2023-09-13T05:03:41.740Z,82.57
2023-09-13T05:06:14.380Z,82.41
2023-09-13T05:08:44.239Z,82.61
2023-09-13T05:11:15.622Z,82.62
2023-09-13T05:13:48.531Z,82.41
2023-09-13T05:16:21.491Z,82.44
2023-09-13T05:18:52.994Z,82.43
2023-09-13T05:21:24.312Z,82.21
2023-09-13T05:23:55.662Z,82.20
2023-09-13T05:26:26.952Z,82.16
2023-09-13T05:28:58.284Z,82.19
2023-09-13T05:31:29.763Z,82.31
2023-09-13T05:34:01.306Z,82.46
2023-09-13T05:36:32.687Z,82.50
2023-09-13T05:39:05.481Z,82.55
2023-09-13T05:41:38.646Z,82.35
2023-09-13T05:44:11.558Z,82.41
2023-09-13T05:46:42.977Z,82.34
2023-09-13T05:49:14.369Z,82.43
2023-09-13T05:51:46.858Z,82.36
2023-09-13T05:54:18.148Z,82.31
2023-09-13T05:56:49.582Z,82.60
2023-09-13T05:59:20.934Z,82.34
2023-09-13T06:01:52.454Z,82.19
2023-09-13T06:04:23.972Z,82.24
2023-09-13T06:06:55.449Z,82.26
2023-09-13T06:09:26.793Z,82.17
2023-09-13T06:11:58.741Z,82.17
2023-09-13T06:14:30.065Z,82.10
2023-09-13T06:17:01.450Z,82.27
2023-09-13T06:19:32.842Z,82.27
2023-09-13T06:22:04.507Z,82.10
2023-09-13T06:24:37.396Z,82.01
2023-09-13T06:27:08.898Z,82.12
2023-09-13T06:29:40.243Z,82.12
2023-09-13T06:32:27.340Z,82.18
2023-09-13T06:35:04.612Z,82.13
2023-09-13T06:37:38.366Z,82.19
2023-09-13T06:40:11.625Z,82.21
2023-09-13T06:45:26.435Z,82.21
2023-09-13T06:48:02.433Z,82.30
2023-09-13T06:51:09.945Z,82.13
2023-09-13T06:53:34.168Z,82.37
2023-09-13T06:56:10.429Z,82.21
2023-09-13T06:58:43.715Z,82.33
2023-09-13T07:01:35.294Z,82.48
2023-09-13T07:04:09.712Z,82.25
2023-09-13T07:06:44.668Z,82.23
2023-09-13T07:09:16.193Z,82.27
2023-09-13T07:11:47.496Z,82.05
2023-09-13T07:14:19.254Z,82.27
2023-09-13T07:16:50.674Z,82.26
2023-09-13T07:19:22.054Z,82.17
2023-09-13T07:21:53.348Z,82.04
2023-09-13T07:24:24.718Z,81.96
2023-09-13T07:26:56.346Z,81.82
2023-09-13T07:29:27.655Z,81.70
2023-09-13T07:31:58.980Z,81.83
2023-09-13T07:34:32.417Z,81.88
2023-09-13T07:37:05.308Z,81.66
2023-09-13T07:39:37.782Z,81.63
2023-09-13T07:42:08.101Z,81.71
2023-09-13T07:44:39.430Z,81.72
2023-09-13T07:47:10.884Z,81.59
2023-09-13T07:49:42.377Z,81.58
2023-09-13T07:52:14.704Z,81.18
2023-09-13T07:54:46.156Z,81.26
2023-09-13T07:57:17.533Z,81.25
2023-09-13T07:59:48.944Z,81.15
2023-09-13T08:02:20.208Z,81.37
2023-09-13T08:04:51.589Z,81.21
2023-09-13T08:07:23.157Z,81.16
2023-09-13T08:09:54.552Z,81.20
2023-09-13T08:12:25.978Z,81.00
2023-09-13T08:14:57.527Z,80.89
2023-09-13T08:17:28.950Z,80.90
2023-09-13T08:20:01.388Z,80.70
2023-09-13T08:22:39.842Z,80.82
2023-09-13T08:25:12.690Z,80.80
2023-09-13T08:27:44.595Z,80.56
2023-09-13T08:30:16.467Z,80.75
2023-09-13T08:32:47.940Z,80.60
2023-09-13T08:35:19.569Z,80.43
2023-09-13T08:37:50.938Z,80.41
2023-09-13T08:40:22.899Z,80.27
2023-09-13T08:42:55.005Z,80.10
2023-09-13T08:45:26.626Z,79.99
2023-09-13T08:48:02.737Z,80.09
2023-09-13T08:50:35.556Z,80.05
2023-09-13T08:53:09.950Z,80.07
2023-09-13T08:55:42.774Z,80.11
2023-09-13T08:58:14.194Z,80.00
2023-09-13T09:00:47.925Z,79.84
2023-09-13T09:03:22.946Z,79.92
2023-09-13T09:05:55.426Z,79.57
2023-09-13T09:08:28.960Z,79.52
2023-09-13T09:11:01.315Z,79.26
2023-09-13T09:13:32.163Z,79.18
2023-09-13T09:16:05.473Z,79.07
2023-09-13T09:18:40.703Z,78.95
2023-09-13T09:21:13.140Z,78.40
2023-09-13T09:23:43.893Z,78.21
2023-09-13T09:26:15.520Z,78.17
2023-09-13T09:28:49.078Z,78.06
2023-09-13T09:31:25.670Z,78.38
2023-09-13T09:34:06.214Z,77.91
2023-09-13T09:36:43.867Z,77.82
2023-09-13T09:39:16.855Z,77.73
2023-09-13T09:41:49.027Z,77.57
2023-09-13T09:44:22.129Z,77.39
2023-09-13T09:46:53.619Z,77.40
2023-09-13T09:49:25.441Z,77.09
2023-09-13T09:51:57.187Z,77.28
2023-09-13T09:54:28.709Z,77.05
2023-09-13T09:57:00.083Z,76.92
2023-09-13T09:59:32.719Z,76.59
2023-09-13T10:02:05.318Z,75.89
2023-09-13T10:04:47.925Z,75.24
2023-09-13T10:07:19.385Z,74.41
2023-09-13T10:09:50.980Z,74.40
2023-09-13T10:12:22.365Z,73.98
2023-09-13T10:14:54.983Z,73.40
2023-09-13T10:17:28.161Z,73.41
2023-09-13T10:20:00.034Z,73.14
2023-09-13T10:22:35.181Z,72.76
2023-09-13T10:25:12.463Z,72.79
2023-09-13T10:27:45.462Z,72.25
2023-09-13T10:30:22.848Z,72.14
2023-09-13T10:32:59.656Z,71.83
2023-09-13T10:35:34.237Z,71.48
2023-09-13T10:38:25.669Z,71.29
2023-09-13T10:41:04.843Z,71.19
2023-09-13T10:43:37.220Z,70.95
2023-09-13T10:46:09.391Z,70.08
2023-09-13T10:48:44.101Z,69.95
2023-09-13T10:51:17.317Z,70.16
2023-09-13T10:53:49.610Z,69.56
2023-09-13T10:56:20.355Z,69.42
2023-09-13T10:58:53.732Z,69.49
2023-09-13T11:01:26.917Z,68.74
2023-09-13T11:03:58.809Z,68.30
2023-09-13T11:06:32.183Z,68.81
2023-09-13T11:09:16.006Z,68.93
2023-09-13T11:11:53.207Z,68.42
2023-09-13T11:14:28.612Z,68.30
2023-09-13T11:17:12.518Z,68.59
2023-09-13T11:19:45.974Z,68.75
2023-09-13T11:22:43.508Z,68.65
2023-09-13T11:25:29.530Z,68.38
2023-09-13T11:28:04.992Z,68.46
2023-09-13T11:30:51.639Z,68.04
2023-09-13T11:33:23.594Z,68.02
2023-09-13T11:35:55.892Z,67.81
2023-09-13T11:38:26.367Z,68.16
2023-09-13T11:40:58.280Z,68.64
2023-09-13T11:43:33.733Z,67.70
2023-09-13T11:46:07.284Z,67.26
2023-09-13T11:48:56.748Z,67.32
2023-09-13T11:54:19.663Z,67.26
2023-09-13T11:57:05.788Z,66.93
2023-09-13T11:59:44.956Z,67.10
2023-09-13T12:02:19.258Z,66.73
2023-09-13T12:04:57.119Z,67.13
2023-09-13T12:07:35.989Z,66.66
2023-09-13T12:10:11.601Z,66.26
2023-09-13T12:12:50.696Z,66.03
2023-09-13T12:18:06.405Z,66.47
2023-09-13T12:20:37.814Z,66.80
2023-09-13T12:23:09.202Z,66.05
2023-09-13T12:25:40.987Z,65.64
2023-09-13T12:28:12.311Z,64.84
2023-09-13T12:30:43.706Z,64.70
2023-09-13T12:33:15.360Z,64.82
2023-09-13T12:35:47.187Z,64.61
2023-09-13T12:38:20.516Z,64.76
2023-09-13T12:40:55.525Z,65.29
2023-09-13T12:43:30.687Z,64.40
2023-09-13T12:46:04.138Z,63.54
2023-09-13T12:48:35.972Z,63.40
2023-09-13T12:51:08.220Z,63.24
2023-09-13T12:53:39.778Z,62.98
2023-09-13T12:56:13.952Z,62.72
2023-09-13T12:58:53.286Z,62.77
2023-09-13T13:01:25.652Z,62.16
2023-09-13T13:04:07.559Z,61.94
2023-09-13T13:06:59.062Z,62.09
2023-09-13T13:09:30.593Z,62.06
2023-09-13T13:12:02.173Z,62.73
2023-09-13T13:14:33.579Z,61.88
2023-09-13T13:17:05.240Z,61.96
2023-09-13T13:19:55.224Z,61.79
2023-09-13T13:22:32.583Z,61.74
2023-09-13T13:25:04.925Z,62.13
2023-09-13T13:27:35.129Z,62.26
2023-09-13T13:30:08.942Z,61.88
2023-09-13T13:32:40.541Z,62.12
2023-09-13T13:35:12.198Z,61.75
2023-09-13T13:37:49.611Z,61.57
2023-09-13T13:40:21.234Z,61.91
2023-09-13T13:42:52.691Z,61.79
2023-09-13T13:45:24.320Z,61.82
2023-09-13T13:47:55.961Z,61.62
2023-09-13T13:50:27.664Z,61.60
2023-09-13T13:53:00.589Z,61.65
2023-09-13T13:55:32.077Z,61.87
2023-09-13T13:58:04.036Z,62.49
2023-09-13T14:00:35.573Z,62.31
2023-09-13T14:03:07.646Z,63.13
2023-09-13T14:05:41.765Z,63.36
2023-09-13T14:08:14.038Z,63.55
2023-09-13T14:10:43.920Z,63.17
2023-09-13T14:13:16.377Z,63.25
2023-09-13T14:15:48.532Z,62.56
2023-09-13T14:18:20.044Z,62.36
2023-09-13T14:20:51.541Z,62.71
2023-09-13T14:23:23.869Z,62.16
2023-09-13T14:25:53.664Z,62.74
2023-09-13T14:28:25.045Z,62.42
2023-09-13T14:30:59.717Z,62.07
2023-09-13T14:33:33.482Z,62.05
2023-09-13T14:36:05.312Z,61.75
2023-09-13T14:38:36.756Z,62.03
2023-09-13T14:41:08.199Z,62.00
2023-09-13T14:43:39.871Z,61.58
2023-09-13T14:46:11.514Z,60.88
2023-09-13T14:48:43.934Z,60.04
2023-09-13T14:51:15.907Z,60.07
2023-09-13T14:53:47.424Z,60.68
2023-09-13T14:56:18.817Z,61.16
2023-09-13T14:58:50.114Z,59.93
2023-09-13T15:01:22.801Z,60.06
2023-09-13T15:03:54.292Z,60.31
2023-09-13T15:06:26.111Z,60.17
2023-09-13T15:08:59.145Z,60.02
2023-09-13T15:11:30.524Z,60.23
2023-09-13T15:14:03.841Z,60.24
2023-09-13T15:16:35.388Z,60.00
2023-09-13T15:19:07.007Z,59.97
2023-09-13T15:21:38.959Z,59.78
2023-09-13T15:24:10.506Z,60.01
2023-09-13T15:26:41.848Z,60.26
2023-09-13T15:29:13.576Z,60.62
2023-09-13T15:32:10.588Z,60.54
2023-09-13T15:34:36.313Z,60.65
2023-09-13T15:37:07.937Z,60.85
2023-09-13T15:39:42.655Z,61.08
2023-09-13T15:42:14.167Z,61.27
2023-09-13T15:44:45.701Z,61.81
2023-09-13T15:47:17.022Z,62.35
2023-09-13T15:49:48.351Z,62.55
2023-09-13T15:52:19.790Z,62.78
2023-09-13T15:54:51.154Z,63.06
2023-09-13T15:57:22.597Z,63.38
2023-09-13T15:59:54.129Z,63.68
2023-09-13T16:02:25.750Z,63.80
2023-09-13T16:04:58.012Z,64.39
2023-09-13T16:07:31.552Z,64.61
2023-09-13T16:10:03.009Z,65.03
2023-09-13T16:12:35.145Z,65.14
2023-09-13T16:15:08.607Z,65.16
2023-09-13T16:17:40.245Z,65.04
2023-09-13T16:20:13.449Z,65.14
2023-09-13T16:22:44.934Z,65.45
2023-09-13T16:25:17.931Z,65.69
2023-09-13T16:27:49.409Z,66.05
2023-09-13T16:30:21.059Z,66.22
2023-09-13T16:32:55.647Z,66.14
2023-09-13T16:35:27.167Z,65.87
2023-09-13T16:37:58.690Z,66.13
2023-09-13T16:40:30.136Z,66.29
2023-09-13T16:43:01.754Z,66.54
2023-09-13T16:45:33.247Z,66.28
2023-09-13T16:48:13.455Z,66.20
2023-09-13T16:50:51.425Z,66.53
2023-09-13T16:53:23.444Z,66.84
2023-09-13T16:55:54.762Z,66.54
2023-09-13T16:58:26.205Z,66.19
2023-09-13T17:00:58.417Z,66.25
2023-09-13T17:03:30.361Z,66.55
2023-09-13T17:06:02.082Z,66.58
2023-09-13T17:08:35.301Z,66.59
2023-09-13T17:11:09.590Z,66.39
2023-09-13T17:13:41.807Z,66.06
2023-09-13T17:16:13.328Z,66.09
2023-09-13T17:18:44.788Z,65.67
2023-09-13T17:21:16.673Z,65.86
2023-09-13T17:23:48.059Z,66.09
2023-09-13T17:26:19.517Z,65.97
2023-09-13T17:28:50.824Z,66.27
2023-09-13T17:31:22.302Z,66.23
2023-09-13T17:33:53.770Z,66.46
2023-09-13T17:36:39.952Z,66.29
2023-09-13T17:39:13.520Z,66.33
2023-09-13T17:41:46.961Z,66.30
2023-09-13T17:44:19.372Z,66.38
2023-09-13T17:46:53.214Z,66.15
2023-09-13T17:49:25.939Z,65.33
2023-09-13T17:51:58.722Z,65.05
2023-09-13T17:54:31.383Z,64.71
2023-09-13T17:57:04.467Z,64.91
2023-09-13T17:59:37.094Z,64.79
2023-09-13T18:02:12.379Z,64.90
2023-09-13T18:04:45.648Z,65.08
2023-09-13T18:07:18.563Z,65.05
2023-09-13T18:09:50.668Z,64.77
2023-09-13T18:12:25.186Z,64.49
2023-09-13T18:14:58.681Z,64.61
2023-09-13T18:17:48.715Z,64.41
2023-09-13T18:20:29.343Z,64.53
2023-09-13T18:23:02.143Z,64.00
2023-09-13T18:25:36.747Z,63.68
2023-09-13T18:28:11.343Z,63.90
2023-09-13T18:30:43.274Z,63.87
2023-09-13T18:33:16.361Z,63.60
2023-09-13T18:35:50.369Z,63.69
2023-09-13T18:38:21.837Z,64.01
2023-09-13T18:41:01.309Z,64.09
2023-09-13T18:43:38.462Z,64.00
2023-09-13T18:46:13.151Z,63.89
2023-09-13T18:48:47.905Z,64.08
2023-09-13T18:51:25.278Z,64.12
2023-09-13T18:54:04.547Z,64.48
2023-09-13T18:56:42.030Z,64.67
2023-09-13T18:59:15.770Z,64.68
2023-09-13T19:01:49.602Z,64.66
2023-09-13T19:04:23.167Z,64.99
2023-09-13T19:07:08.339Z,64.93
2023-09-13T19:09:44.587Z,65.07
2023-09-13T19:12:16.107Z,64.93
2023-09-13T19:14:47.586Z,64.92
2023-09-13T19:17:18.982Z,65.41
2023-09-13T19:19:52.539Z,65.50
2023-09-13T19:22:25.479Z,65.71
2023-09-13T19:24:59.470Z,65.71
2023-09-13T19:27:32.687Z,65.87
2023-09-13T19:30:12.168Z,65.88
2023-09-13T19:32:45.051Z,66.13
2023-09-13T19:35:18.327Z,66.16
2023-09-13T19:37:53.414Z,66.32
2023-09-13T19:40:26.908Z,66.25
2023-09-13T19:42:59.912Z,66.38
2023-09-13T19:45:35.343Z,66.54
2023-09-13T19:48:09.337Z,66.70
2023-09-13T19:50:49.334Z,66.68
2023-09-13T19:53:22.416Z,66.75
2023-09-13T19:55:59.248Z,66.94
2023-09-13T19:58:36.786Z,66.75
2023-09-13T20:01:09.471Z,67.13
2023-09-13T20:03:43.877Z,67.22
2023-09-13T20:06:17.678Z,67.42
2023-09-13T20:08:49.356Z,67.20
2023-09-13T20:11:22.244Z,67.24
2023-09-13T20:13:55.518Z,67.07
2023-09-13T20:16:28.829Z,67.08
2023-09-13T20:19:00.350Z,67.04
2023-09-13T20:21:31.816Z,67.17
2023-09-13T20:24:03.106Z,67.38
2023-09-13T20:26:34.443Z,67.51
2023-09-13T20:29:06.578Z,67.52
2023-09-13T20:31:37.884Z,67.51
2023-09-13T20:34:09.512Z,67.71
2023-09-13T20:36:40.938Z,67.91
2023-09-13T20:39:13.491Z,67.86
2023-09-13T20:41:45.795Z,68.00
2023-09-13T20:44:17.264Z,68.08
2023-09-13T20:46:48.691Z,68.19
2023-09-13T20:49:20.238Z,68.10
2023-09-13T20:51:57.362Z,68.33
2023-09-13T20:54:29.531Z,68.27
2023-09-13T20:57:01.076Z,68.30
2023-09-13T20:59:32.359Z,68.35
2023-09-13T21:02:04.607Z,68.56
2023-09-13T21:04:36.068Z,68.73
2023-09-13T21:07:08.544Z,69.13
2023-09-13T21:09:39.946Z,69.41
2023-09-13T21:12:12.765Z,69.46
2023-09-13T21:14:44.644Z,69.54
2023-09-13T21:17:16.014Z,69.61
2023-09-13T21:19:47.734Z,69.60
2023-09-13T21:22:19.054Z,70.17
2023-09-13T21:24:50.498Z,70.11
2023-09-13T21:27:22.760Z,70.09
2023-09-13T21:29:54.096Z,70.26
2023-09-13T21:32:25.556Z,70.39
2023-09-13T21:35:02.442Z,70.38
2023-09-13T21:37:35.361Z,70.59
2023-09-13T21:40:08.744Z,70.64
2023-09-13T21:42:40.150Z,70.96
2023-09-13T21:45:13.554Z,71.04
2023-09-13T21:47:44.994Z,71.13
2023-09-13T21:50:16.493Z,71.29
2023-09-13T21:52:48.173Z,71.52
2023-09-13T21:55:20.189Z,71.72
2023-09-13T21:57:51.696Z,71.84
2023-09-13T22:00:23.268Z,71.97
2023-09-13T22:02:55.834Z,72.04
2023-09-13T22:05:27.702Z,72.25
2023-09-13T22:07:59.199Z,72.23
2023-09-13T22:10:30.704Z,72.39
2023-09-13T22:13:03.445Z,72.74
2023-09-13T22:15:35.125Z,72.68
2023-09-13T22:18:08.003Z,72.76
2023-09-13T22:20:39.735Z,72.90
2023-09-13T22:23:11.311Z,73.22
2023-09-13T22:25:42.846Z,73.24
2023-09-13T22:28:14.407Z,73.38
2023-09-13T22:30:45.994Z,73.27
2023-09-13T22:33:17.377Z,73.21
2023-09-13T22:35:48.860Z,73.18
2023-09-13T22:38:20.306Z,73.40
2023-09-13T22:40:51.879Z,73.54
2023-09-13T22:43:23.711Z,73.52
2023-09-13T22:45:55.776Z,73.57
2023-09-13T22:48:28.003Z,73.60
2023-09-13T22:51:00.094Z,73.81
2023-09-13T22:53:31.657Z,74.00
2023-09-13T22:56:03.151Z,73.97
2023-09-13T22:58:34.617Z,74.27
2023-09-13T23:01:12.272Z,74.11
2023-09-13T23:03:46.150Z,74.36
2023-09-13T23:06:19.926Z,74.61
2023-09-13T23:08:51.534Z,74.57
2023-09-13T23:11:23.855Z,74.52
2023-09-13T23:14:00.079Z,74.67
2023-09-13T23:16:32.274Z,74.64
2023-09-13T23:19:04.499Z,74.73
2023-09-13T23:21:35.933Z,74.83
2023-09-13T23:24:13.656Z,74.90
2023-09-13T23:26:45.833Z,74.93
2023-09-13T23:29:17.161Z,74.95
2023-09-13T23:31:49.198Z,74.91
2023-09-13T23:34:21.041Z,75.17
2023-09-13T23:36:52.985Z,75.37
2023-09-13T23:39:24.374Z,75.49
2023-09-13T23:41:55.612Z,75.26
2023-09-13T23:44:26.866Z,75.46
2023-09-13T23:46:59.026Z,75.45
2023-09-13T23:49:30.901Z,75.45
2023-09-13T23:52:02.278Z,75.44
2023-09-13T23:54:33.866Z,75.53
2023-09-13T23:57:05.560Z,75.64
2023-09-13T23:59:37.020Z,75.76
